Time;durP1;ratioP1;P1;durP2;ratioP2;P2;SDS_P1;SDS_P2;PMS_P1;PMS_P2;Temp;Humidity;BMP_temperature;BMP_pressure;BME280_temperature;BME280_humidity;BME280_pressure;Samples;Min_cycle;Max_cycle;Signal;HPM_P1;HPM_P2
2021/03/27 00:01:41;;;;;;;3.20;1.30;;;;;;;5.24;91.18;100044.16;5024666;28;20408;-73
2021/03/27 00:04:20;;;;;;;3.10;1.35;;;;;;;5.19;91.79;100057.56;5024567;28;20052;-71
2021/03/27 00:06:51;;;;;;;2.40;1.25;;;;;;;5.20;90.64;100064.59;5019333;28;20050;-71
2021/03/27 00:09:50;;;;;;;3.67;1.30;;;;;;;5.22;91.67;100067.16;5033699;28;20092;-70
2021/03/27 00:12:30;;;;;;;2.65;1.50;;;;;;;5.27;92.60;100068.69;5037260;28;20049;-69
2021/03/27 00:15:28;;;;;;;2.13;1.15;;;;;;;5.29;91.68;100069.50;5037478;28;20052;-72
2021/03/27 00:18:00;;;;;;;2.58;1.30;;;;;;;5.24;91.25;100074.09;5037490;28;20080;-71
2021/03/27 00:20:34;;;;;;;3.38;1.70;;;;;;;5.32;92.53;100083.53;5036996;28;20045;-71
2021/03/27 00:23:02;;;;;;;6.03;1.42;;;;;;;5.29;93.17;100084.53;5037062;28;20080;-74
2021/03/27 00:25:37;;;;;;;3.58;1.00;;;;;;;5.26;92.22;100090.78;5037003;28;20049;-70
2021/03/27 00:28:36;;;;;;;3.78;1.08;;;;;;;5.12;91.53;100093.13;5037310;28;20390;-73
2021/03/27 00:31:10;;;;;;;4.60;1.08;;;;;;;5.09;91.52;100087.94;5037393;28;20050;-72
2021/03/27 00:34:00;;;;;;;7.78;1.10;;;;;;;5.03;90.92;100103.13;5052179;28;20049;-71
2021/03/27 00:36:48;;;;;;;2.55;1.20;;;;;;;5.08;89.95;100110.91;5036782;28;20076;-70
2021/03/27 00:39:23;;;;;;;5.60;2.65;;;;;;;5.09;91.47;100102.06;5037477;28;20053;-71
2021/03/27 00:42:00;;;;;;;2.40;1.20;;;;;;;5.10;90.24;100100.25;5036754;28;20057;-71
2021/03/27 00:44:44;;;;;;;4.82;1.50;;;;;;;5.02;89.95;100096.13;5036849;28;20049;-71
2021/03/27 00:47:15;;;;;;;6.57;2.05;;;;;;;4.95;90.87;100097.28;5036843;28;20049;-72
2021/03/27 00:49:50;;;;;;;7.43;2.10;;;;;;;4.95;90.72;100110.50;5036777;28;20137;-71
2021/03/27 00:52:19;;;;;;;3.92;1.55;;;;;;;5.01;91.28;100101.50;5036904;28;20088;-72
2021/03/27 00:55:03;;;;;;;6.18;1.58;;;;;;;5.01;90.52;100099.69;5035400;28;20089;-73
2021/03/27 00:57:42;;;;;;;2.55;0.88;;;;;;;4.99;89.52;100096.25;5051276;28;20055;-74
2021/03/27 01:00:12;;;;;;;4.35;2.00;;;;;;;4.92;90.25;100093.91;5025740;28;20057;-72
2021/03/27 01:02:49;;;;;;;5.63;1.53;;;;;;;4.90;89.96;100099.22;5016632;28;20145;-72
2021/03/27 01:05:21;;;;;;;4.43;1.40;;;;;;;4.86;91.15;100095.00;5016577;28;20081;-73
2021/03/27 01:07:49;;;;;;;4.45;1.65;;;;;;;4.79;91.35;100098.81;5016611;28;20133;-74
2021/03/27 01:10:31;;;;;;;4.15;1.50;;;;;;;4.83;91.69;100118.91;5016417;28;20054;-69
2021/03/27 01:13:02;;;;;;;7.30;1.80;;;;;;;4.73;89.80;100110.47;5017282;28;20057;-72
2021/03/27 01:15:35;;;;;;;5.72;1.45;;;;;;;4.81;91.58;100128.69;5017474;28;20049;-70
2021/03/27 01:18:22;;;;;;;7.25;1.85;;;;;;;4.78;91.89;100112.97;5017971;28;20061;-70
2021/03/27 01:20:53;;;;;;;7.72;2.60;;;;;;;4.74;90.15;100110.41;5018346;28;20417;-72
2021/03/27 01:23:20;;;;;;;6.70;2.15;;;;;;;4.67;90.77;100100.97;5018539;28;20050;-72
2021/03/27 01:25:47;;;;;;;5.93;1.70;;;;;;;4.63;91.47;100120.50;5020969;28;20050;-72
2021/03/27 01:28:33;;;;;;;7.38;1.67;;;;;;;4.65;91.17;100110.75;5016726;28;20064;-73
2021/03/27 01:30:59;;;;;;;5.93;2.15;;;;;;;4.59;90.85;100114.47;5021600;28;20072;-72
2021/03/27 01:33:28;;;;;;;7.65;2.08;;;;;;;4.56;91.33;100119.00;5016535;28;20454;-70
2021/03/27 01:36:06;;;;;;;6.47;2.85;;;;;;;4.59;92.03;100109.19;5016026;28;20432;-73
2021/03/27 01:39:00;;;;;;;6.20;1.80;;;;;;;4.59;91.01;100106.53;5016137;28;20139;-70
2021/03/27 01:41:44;;;;;;;7.65;2.55;;;;;;;4.63;91.79;100120.50;5016280;28;20080;-71
2021/03/27 01:44:39;;;;;;;7.95;2.95;;;;;;;4.59;90.46;100124.22;5015256;28;20058;-72
2021/03/27 01:47:36;;;;;;;8.82;3.53;;;;;;;4.60;90.81;100123.28;5016004;28;20119;-71
2021/03/27 01:50:14;;;;;;;7.05;2.90;;;;;;;4.63;90.45;100125.78;5015998;28;20361;-72
2021/03/27 01:52:52;;;;;;;11.00;3.53;;;;;;;4.72;91.13;100130.75;5015819;28;20061;-69
2021/03/27 01:55:30;;;;;;;9.95;3.88;;;;;;;4.59;91.50;100124.22;5015892;28;20061;-72
2021/03/27 01:58:29;;;;;;;10.07;3.25;;;;;;;4.56;92.00;100124.31;5015903;28;20132;-74
2021/03/27 02:01:17;;;;;;;10.02;3.65;;;;;;;4.58;90.60;100133.06;4995294;28;20050;-70
2021/03/27 02:03:58;;;;;;;7.95;3.05;;;;;;;4.57;90.07;100123.41;4995854;28;20093;-73
2021/03/27 02:06:31;;;;;;;7.43;3.00;;;;;;;4.53;91.47;100122.63;4995317;28;20054;-72
2021/03/27 02:09:18;;;;;;;6.28;2.70;;;;;;;4.61;90.73;100128.53;4995787;28;20054;-69
2021/03/27 02:12:04;;;;;;;7.53;3.20;;;;;;;4.61;90.00;100127.66;4994729;28;20062;-71
2021/03/27 02:14:54;;;;;;;9.63;2.60;;;;;;;4.63;90.97;100131.09;4995106;28;20062;-72
2021/03/27 02:17:43;;;;;;;5.03;2.60;;;;;;;4.65;89.57;100139.84;4995049;28;20419;-72
2021/03/27 02:20:44;;;;;;;5.93;2.33;;;;;;;4.62;89.01;100138.16;4995643;28;20356;-73
2021/03/27 02:23:14;;;;;;;9.10;2.22;;;;;;;4.61;88.81;100146.16;4995848;28;20125;-73
2021/03/27 02:25:50;;;;;;;7.70;2.10;;;;;;;4.61;88.28;100140.88;4995696;28;20073;-72
2021/03/27 02:28:45;;;;;;;9.68;3.40;;;;;;;4.65;88.60;100153.06;4995647;28;20109;-70
2021/03/27 02:31:30;;;;;;;10.57;3.03;;;;;;;4.72;90.01;100151.91;4995933;28;20057;-70
2021/03/27 02:34:15;;;;;;;6.80;2.10;;;;;;;4.70;87.80;100164.34;4995342;28;20061;-74
2021/03/27 02:36:55;;;;;;;6.78;2.08;;;;;;;4.70;88.03;100166.97;4994616;28;20358;-71
2021/03/27 02:39:35;;;;;;;6.15;2.10;;;;;;;4.68;88.48;100171.44;4995652;28;20056;-69
2021/03/27 02:42:13;;;;;;;15.57;2.55;;;;;;;4.75;86.97;100177.38;4995668;28;20488;-69
2021/03/27 02:45:11;;;;;;;7.65;2.72;;;;;;;4.73;86.63;100172.16;4995694;28;20470;-71
2021/03/27 02:47:45;;;;;;;9.48;2.90;;;;;;;4.78;87.79;100177.25;4994308;28;20058;-72
2021/03/27 02:50:24;;;;;;;12.90;2.60;;;;;;;4.81;87.09;100178.94;4995568;28;20511;-72
2021/03/27 02:53:11;;;;;;;8.43;2.47;;;;;;;4.83;86.84;100193.81;5010979;28;20065;-70
2021/03/27 02:55:45;;;;;;;8.82;2.28;;;;;;;4.83;86.17;100191.19;4995454;28;20097;-73
2021/03/27 02:58:31;;;;;;;6.68;2.47;;;;;;;4.84;87.40;100194.66;4995459;28;20054;-73
2021/03/27 03:01:04;;;;;;;18.33;2.53;;;;;;;4.87;85.71;100197.22;5012579;28;20057;-72
2021/03/27 03:04:09;;;;;;;10.18;2.40;;;;;;;4.89;86.09;100208.59;5015364;28;20062;-70
2021/03/27 03:06:38;;;;;;;9.07;3.28;;;;;;;4.87;86.88;100210.44;4999007;28;20353;-71
2021/03/27 03:09:22;;;;;;;12.60;1.98;;;;;;;4.72;84.99;100175.72;5014958;28;20057;-72
2021/03/27 03:12:30;;;;;;;8.55;2.10;;;;;;;4.65;84.44;100179.50;5014938;28;20353;-74
2021/03/27 03:15:27;;;;;;;14.30;3.03;;;;;;;4.78;85.79;100216.94;5014687;28;20344;-72
2021/03/27 03:18:04;;;;;;;10.48;2.10;;;;;;;4.78;84.82;100203.69;5006042;28;20053;-72
2021/03/27 03:20:34;;;;;;;10.15;2.15;;;;;;;4.76;83.94;100214.31;5015019;28;20060;-70
2021/03/27 03:23:26;;;;;;;9.80;2.53;;;;;;;4.67;84.77;100209.38;5018656;28;20053;-72
2021/03/27 03:26:21;;;;;;;15.38;2.58;;;;;;;4.66;85.03;100220.00;5015980;28;20096;-71
2021/03/27 03:29:15;;;;;;;8.40;2.25;;;;;;;4.61;83.94;100226.34;5017270;28;20064;-72
2021/03/27 03:31:50;;;;;;;17.02;2.80;;;;;;;4.56;84.24;100235.31;5018608;28;20050;-70
2021/03/27 03:34:40;;;;;;;15.40;2.70;;;;;;;4.47;84.35;100223.31;5018873;28;20161;-70
2021/03/27 03:37:14;;;;;;;7.97;1.80;;;;;;;4.51;83.72;100239.94;5019099;28;20053;-72
2021/03/27 03:39:56;;;;;;;10.15;1.98;;;;;;;4.48;84.12;100244.38;5017378;28;20058;-70
2021/03/27 03:42:47;;;;;;;5.88;1.40;;;;;;;4.43;84.15;100242.81;5018295;28;20050;-73
2021/03/27 03:45:27;;;;;;;8.07;1.77;;;;;;;4.21;84.76;100225.06;5018159;28;20100;-72
2021/03/27 03:48:12;;;;;;;7.95;1.25;;;;;;;4.32;84.34;100238.75;5017047;28;20381;-73
2021/03/27 03:50:51;;;;;;;13.02;1.98;;;;;;;4.33;84.72;100236.97;5018173;28;20053;-72
2021/03/27 03:53:34;;;;;;;10.90;2.22;;;;;;;4.32;84.18;100235.25;5018058;28;20126;-72
2021/03/27 03:56:28;;;;;;;12.65;2.38;;;;;;;4.33;85.57;100250.19;5016643;28;20057;-70
2021/03/27 03:59:12;;;;;;;15.20;1.95;;;;;;;4.31;84.33;100252.88;5017744;28;20439;-73
2021/03/27 04:01:53;;;;;;;11.77;2.30;;;;;;;4.28;84.66;100253.00;5017591;28;20391;-73
2021/03/27 04:04:24;;;;;;;12.00;1.80;;;;;;;4.26;84.35;100248.69;5018948;28;20042;-71
2021/03/27 04:07:12;;;;;;;10.70;1.75;;;;;;;4.20;85.09;100234.75;5020143;28;20054;-72
2021/03/27 04:09:50;;;;;;;9.52;2.15;;;;;;;4.26;84.91;100243.41;5019264;28;20112;-71
2021/03/27 04:12:32;;;;;;;11.50;2.50;;;;;;;4.27;84.98;100242.47;5018489;28;20064;-73
2021/03/27 04:15:21;;;;;;;;;;;;;;;4.31;83.92;100252.03;5019612;28;20101;-71
2021/03/27 04:18:17;;;;;;;11.55;2.33;;;;;;;4.39;83.17;100247.34;5030358;28;19929;-74
2021/03/27 04:21:19;;;;;;;13.45;2.10;;;;;;;4.47;83.58;100252.38;5019855;28;20092;-73
2021/03/27 04:24:07;;;;;;;13.57;2.77;;;;;;;4.51;82.96;100245.22;5017317;28;20053;-74
2021/03/27 04:26:35;;;;;;;6.28;1.88;;;;;;;4.57;82.90;100268.81;5017486;28;20080;-73
2021/03/27 04:29:11;;;;;;;14.45;1.90;;;;;;;4.60;83.12;100252.81;5017295;28;20050;-73
2021/03/27 04:31:42;;;;;;;6.35;1.67;;;;;;;4.61;82.95;100259.81;5017421;28;20422;-72
2021/03/27 04:34:22;;;;;;;16.30;4.45;;;;;;;4.63;83.80;100273.84;5016906;28;20149;-73
2021/03/27 04:37:02;;;;;;;14.18;3.03;;;;;;;4.66;82.89;100275.53;5017393;28;20057;-71
2021/03/27 04:40:01;;;;;;;14.80;2.10;;;;;;;4.66;83.10;100273.75;5017302;28;20045;-72
2021/03/27 04:42:59;;;;;;;11.85;2.53;;;;;;;4.69;83.99;100288.66;5016509;28;20054;-73
2021/03/27 04:45:26;;;;;;;11.63;2.80;;;;;;;4.73;83.17;100284.97;5017150;28;20069;-74
2021/03/27 04:48:15;;;;;;;10.68;1.77;;;;;;;4.72;82.77;100284.13;5017064;28;20058;-70
2021/03/27 04:51:19;;;;;;;21.85;2.45;;;;;;;4.75;83.27;100299.88;5016156;28;20049;-71
2021/03/27 04:54:02;;;;;;;13.75;2.28;;;;;;;4.74;83.61;100295.50;5017009;28;20352;-71
2021/03/27 04:56:41;;;;;;;11.02;2.33;;;;;;;4.82;83.71;100311.09;5015673;28;20049;-73
2021/03/27 04:59:32;;;;;;;13.77;2.78;;;;;;;4.80;83.32;100312.91;5015746;28;20436;-70
2021/03/27 05:02:14;;;;;;;11.98;2.55;;;;;;;4.82;82.97;100308.47;5016900;28;20057;-71
2021/03/27 05:04:58;;;;;;;9.95;2.25;;;;;;;4.85;82.54;100315.44;5019827;28;20462;-71
2021/03/27 05:07:28;;;;;;;14.70;2.92;;;;;;;4.79;82.74;100300.63;5017634;28;20054;-71
2021/03/27 05:10:15;;;;;;;10.80;2.38;;;;;;;4.92;83.48;100322.25;5016535;28;20058;-71
2021/03/27 05:12:41;;;;;;;11.70;2.53;;;;;;;4.94;84.26;100319.50;5016567;28;20446;-72
2021/03/27 05:15:12;;;;;;;14.20;2.38;;;;;;;4.91;83.25;100328.44;5017841;28;20068;-73
2021/03/27 05:17:44;;;;;;;11.02;2.17;;;;;;;4.95;82.83;100322.13;5016485;28;20088;-72
2021/03/27 05:20:32;;;;;;;19.40;2.63;;;;;;;4.94;83.02;100330.09;5016293;28;20050;-72
2021/03/27 05:23:07;;;;;;;15.93;3.25;;;;;;;5.01;82.75;100329.00;5016462;28;20132;-73
2021/03/27 05:25:37;;;;;;;11.23;2.20;;;;;;;5.02;83.08;100323.63;5016346;28;20435;-71
2021/03/27 05:28:29;;;;;;;18.48;2.60;;;;;;;5.05;82.18;100333.22;5016561;28;20614;-71
2021/03/27 05:31:11;;;;;;;20.33;2.90;;;;;;;5.08;82.67;100334.91;5016565;28;20054;-72
2021/03/27 05:34:01;;;;;;;14.75;2.53;;;;;;;5.09;82.17;100339.28;5016641;28;20108;-72
2021/03/27 05:36:54;;;;;;;10.20;2.63;;;;;;;5.10;82.48;100325.13;5017034;28;20123;-72
2021/03/27 05:40:08;;;;;;;13.63;2.70;;;;;;;5.06;82.08;100340.25;5016062;28;20294;-73
2021/03/27 05:43:12;;;;;;;22.73;3.30;;;;;;;5.09;82.04;100345.44;5014286;28;20053;-71
2021/03/27 05:46:15;;;;;;;14.88;2.88;;;;;;;5.07;83.74;100360.50;5016062;28;20048;-74
2021/03/27 05:49:10;;;;;;;18.15;2.67;;;;;;;4.95;85.18;100367.06;5016061;28;20395;-73
2021/03/27 05:51:59;;;;;;;12.52;2.97;;;;;;;4.72;87.47;100384.59;5016186;28;20057;-73
2021/03/27 05:54:40;;;;;;;13.52;3.33;;;;;;;4.50;89.98;100395.00;5015724;28;20506;-74
2021/03/27 05:57:45;;;;;;;11.98;2.72;;;;;;;4.23;91.13;100428.47;5016024;28;20062;-72
2021/03/27 06:00:31;;;;;;;6.15;1.52;;;;;;;3.37;91.06;100450.19;5007082;28;20083;-72
2021/03/27 06:03:23;;;;;;;7.97;1.83;;;;;;;3.09;90.22;100434.19;5015587;28;20431;-73
2021/03/27 06:05:58;;;;;;;3.10;1.08;;;;;;;2.93;92.37;100446.88;5015734;28;20141;-72
2021/03/27 06:08:39;;;;;;;2.25;0.68;;;;;;;2.87;92.92;100444.44;5015871;28;20089;-70
2021/03/27 06:11:23;;;;;;;3.17;0.90;;;;;;;2.88;94.74;100443.53;5015895;28;20050;-73
2021/03/27 06:14:41;;;;;;;6.15;1.00;;;;;;;2.87;94.21;100447.91;5016517;28;20049;-73
2021/03/27 06:17:30;;;;;;;5.30;1.00;;;;;;;2.85;93.66;100447.09;5014982;28;20131;-74
2021/03/27 06:20:29;;;;;;;7.15;1.05;;;;;;;2.77;93.27;100444.63;5015677;28;20050;-73
2021/03/27 06:23:06;;;;;;;4.60;1.00;;;;;;;2.83;93.86;100452.41;5016262;28;20446;-70
2021/03/27 06:25:45;;;;;;;4.35;0.90;;;;;;;2.74;92.56;100454.38;5015586;28;20081;-71
2021/03/27 06:28:29;;;;;;;2.80;0.63;;;;;;;2.74;93.15;100447.38;5014337;28;20057;-71
2021/03/27 06:31:27;;;;;;;1.83;0.68;;;;;;;2.71;93.20;100450.06;5015632;28;20441;-70
2021/03/27 06:34:09;;;;;;;5.75;0.90;;;;;;;2.74;94.46;100470.22;5015496;28;20137;-71
2021/03/27 06:36:43;;;;;;;5.95;1.02;;;;;;;2.71;93.01;100465.88;5014593;28;20049;-72
2021/03/27 06:39:47;;;;;;;2.70;0.70;;;;;;;2.80;93.69;100459.53;5015828;28;20053;-71
2021/03/27 06:42:42;;;;;;;6.32;1.85;;;;;;;2.79;93.06;100466.53;4998812;28;20447;-72
2021/03/27 06:45:21;;;;;;;3.42;0.90;;;;;;;2.81;93.67;100467.41;5017640;28;20053;-70
2021/03/27 06:48:12;;;;;;;7.63;1.20;;;;;;;2.76;93.01;100469.28;5017001;28;20129;-73
2021/03/27 06:50:54;;;;;;;5.03;0.70;;;;;;;2.81;92.36;100477.94;5015547;28;20347;-74
2021/03/27 06:53:28;;;;;;;6.22;1.55;;;;;;;2.91;92.47;100478.59;5015414;28;20066;-71
2021/03/27 06:56:12;;;;;;;6.78;1.00;;;;;;;3.04;92.36;100499.41;5016096;28;20054;-70
2021/03/27 06:58:57;;;;;;;3.60;0.88;;;;;;;3.15;91.86;100496.50;5019384;28;20053;-71
2021/03/27 07:01:49;;;;;;;4.10;1.00;;;;;;;3.21;90.25;100504.25;5014596;28;20109;-71
2021/03/27 07:04:28;;;;;;;4.40;0.93;;;;;;;3.30;90.51;100501.38;4997406;28;20056;-73
2021/03/27 07:07:19;;;;;;;5.32;1.10;;;;;;;3.31;90.56;100495.19;4999187;28;20050;-72
2021/03/27 07:10:10;;;;;;;6.05;1.13;;;;;;;3.35;90.65;100499.50;4999286;28;20047;-70
2021/03/27 07:12:58;;;;;;;2.75;1.17;;;;;;;3.34;89.54;100523.28;4999261;28;20128;-71
2021/03/27 07:15:49;;;;;;;5.25;1.67;;;;;;;3.32;90.20;100522.44;4999188;28;20054;-71
2021/03/27 07:19:09;;;;;;;6.03;1.08;;;;;;;3.35;89.58;100539.06;4997993;28;20108;-70
2021/03/27 07:22:11;;;;;;;6.47;1.58;;;;;;;3.16;88.46;100498.22;4957993;29;20051;-73
2021/03/27 07:25:10;;;;;;;4.53;1.05;;;;;;;3.39;88.63;100545.13;5007988;28;20399;-75
2021/03/27 07:27:48;;;;;;;4.72;1.38;;;;;;;3.49;89.43;100543.13;5015632;28;20050;-72
2021/03/27 07:30:41;;;;;;;6.45;1.17;;;;;;;3.55;88.27;100542.97;5018762;28;20356;-73
2021/03/27 07:33:33;;;;;;;4.85;1.50;;;;;;;3.68;87.88;100548.78;5018608;28;20073;-71
2021/03/27 07:36:41;;;;;;;7.78;1.50;;;;;;;3.83;88.01;100552.81;5029612;28;20049;-76
2021/03/27 07:39:36;;;;;;;5.97;1.70;;;;;;;4.00;87.58;100559.41;5017193;28;20065;-77
2021/03/27 07:42:40;;;;;;;4.82;1.70;;;;;;;3.97;87.51;100533.09;5018455;28;20132;-73
2021/03/27 07:45:40;;;;;;;10.77;2.15;;;;;;;4.33;86.62;100567.31;5018173;28;20052;-72
2021/03/27 07:48:24;;;;;;;12.35;2.25;;;;;;;4.35;86.79;100578.69;5019021;28;20062;-71
2021/03/27 07:51:15;;;;;;;6.68;1.70;;;;;;;4.29;85.32;100574.44;5017034;28;20391;-74
2021/03/27 07:54:06;;;;;;;10.52;2.30;;;;;;;4.35;86.11;100590.13;5017845;28;20053;-70
2021/03/27 07:56:49;;;;;;;14.68;2.05;;;;;;;4.39;86.70;100582.09;5017917;28;20054;-70
2021/03/27 07:59:24;;;;;;;14.57;3.20;;;;;;;4.45;84.08;100589.88;5017008;28;20085;-70
2021/03/27 08:02:19;;;;;;;11.30;2.15;;;;;;;4.54;85.34;100599.31;5012574;28;20061;-69
2021/03/27 08:05:19;;;;;;;12.77;2.70;;;;;;;4.66;84.03;100595.44;5021742;28;20062;-69
2021/03/27 08:08:22;;;;;;;10.70;2.42;;;;;;;4.79;84.90;100586.22;4997600;28;20428;-69
2021/03/27 08:11:26;;;;;;;10.88;2.10;;;;;;;4.88;84.33;100585.97;4997829;28;20054;-72
2021/03/27 08:14:22;;;;;;;8.77;2.20;;;;;;;5.04;82.46;100596.06;4998228;28;20689;-71
2021/03/27 08:16:56;;;;;;;21.55;2.58;;;;;;;5.14;82.98;100594.00;4997958;28;20423;-72
2021/03/27 08:19:41;;;;;;;18.77;2.90;;;;;;;5.18;82.64;100600.94;4997796;28;20379;-71
2021/03/27 08:22:41;;;;;;;12.10;2.60;;;;;;;5.35;81.54;100608.34;4997822;28;20440;-70
2021/03/27 08:25:19;;;;;;;14.95;2.45;;;;;;;5.44;81.17;100610.69;4998129;28;20050;-70
2021/03/27 08:28:13;;;;;;;15.45;3.13;;;;;;;5.44;78.91;100631.00;4998002;28;20057;-70
2021/03/27 08:31:11;;;;;;;19.40;2.50;;;;;;;5.44;79.63;100620.41;4997842;28;20050;-71
2021/03/27 08:33:59;;;;;;;14.55;2.58;;;;;;;5.46;80.85;100629.19;5012270;28;20427;-69
2021/03/27 08:36:28;;;;;;;13.43;2.92;;;;;;;5.56;79.30;100625.31;4997958;28;20050;-72
2021/03/27 08:39:12;;;;;;;16.15;3.05;;;;;;;5.66;79.39;100632.97;5012732;28;20050;-72
2021/03/27 08:42:03;;;;;;;12.75;3.03;;;;;;;5.71;77.44;100621.28;4997822;28;20061;-70
2021/03/27 08:44:32;;;;;;;14.10;2.13;;;;;;;5.79;77.26;100630.75;5012921;28;20054;-76
2021/03/27 08:47:18;;;;;;;17.67;2.72;;;;;;;5.85;76.40;100647.31;5012931;28;20189;-72
2021/03/27 08:49:53;;;;;;;13.75;3.08;;;;;;;5.93;78.55;100640.88;4998944;28;20046;-71
2021/03/27 08:52:51;;;;;;;14.70;2.45;;;;;;;6.02;77.15;100640.63;5030109;28;20057;-71
2021/03/27 08:55:37;;;;;;;16.75;3.10;;;;;;;6.10;76.83;100649.16;5012888;28;20343;-75
2021/03/27 08:58:25;;;;;;;16.92;3.55;;;;;;;6.28;75.97;100644.16;5015635;28;20057;-75
2021/03/27 09:01:35;;;;;;;12.30;2.83;;;;;;;6.27;76.70;100654.78;5016450;28;20057;-70
2021/03/27 09:04:01;;;;;;;20.73;3.85;;;;;;;6.40;76.32;100664.06;5017473;28;20073;-76
2021/03/27 09:06:30;;;;;;;9.48;2.63;;;;;;;6.40;73.25;100658.75;5015747;28;20050;-75
2021/03/27 09:09:11;;;;;;;16.20;3.42;;;;;;;6.37;73.50;100670.31;5016698;28;20450;-76
2021/03/27 09:12:12;;;;;;;20.13;3.65;;;;;;;6.33;73.01;100668.69;5017231;28;20423;-75
2021/03/27 09:15:12;;;;;;;20.53;3.00;;;;;;;6.34;73.90;100673.09;5028943;28;20054;-73
2021/03/27 09:18:12;;;;;;;21.13;3.47;;;;;;;6.39;75.38;100683.53;5007972;28;20050;-72
2021/03/27 09:21:31;;;;;;;11.70;2.60;;;;;;;6.49;75.82;100684.06;4998695;28;20345;-73
2021/03/27 09:24:31;;;;;;;10.52;2.33;;;;;;;6.42;73.12;100683.41;5005162;28;20053;-72
2021/03/27 09:27:22;;;;;;;16.10;4.32;;;;;;;6.17;73.37;100694.88;5011975;28;20060;-71
2021/03/27 09:30:05;;;;;;;16.10;2.83;;;;;;;6.04;73.22;100683.81;4996943;28;20380;-72
2021/03/27 09:32:46;;;;;;;11.10;2.55;;;;;;;6.13;74.11;100692.38;5014067;28;20061;-71
2021/03/27 09:35:31;;;;;;;21.48;4.78;;;;;;;6.32;73.57;100711.19;5015955;28;20057;-73
2021/03/27 09:38:28;;;;;;;20.40;3.05;;;;;;;6.33;73.84;100707.59;5017859;28;20351;-74
2021/03/27 09:41:00;;;;;;;18.05;2.63;;;;;;;6.54;71.93;100718.38;5019294;28;20042;-74
2021/03/27 09:44:07;;;;;;;17.80;3.20;;;;;;;6.83;73.15;100719.13;5015958;28;20058;-73
2021/03/27 09:46:51;;;;;;;14.75;2.60;;;;;;;7.03;71.78;100726.38;5008607;28;20455;-73
2021/03/27 09:49:42;;;;;;;11.85;2.33;;;;;;;6.77;69.62;100730.84;5002374;28;20050;-71
2021/03/27 09:52:17;;;;;;;11.25;1.90;;;;;;;6.70;68.79;100731.97;4995469;28;20054;-73
2021/03/27 09:55:33;;;;;;;13.18;2.92;;;;;;;6.85;68.17;100736.72;4996625;28;20137;-73
2021/03/27 09:58:38;;;;;;;8.85;2.03;;;;;;;6.90;68.83;100748.03;4996602;28;20075;-71
2021/03/27 10:01:33;;;;;;;13.55;2.53;;;;;;;7.00;68.57;100737.06;5014845;28;20052;-74
2021/03/27 10:04:11;;;;;;;9.93;2.28;;;;;;;6.97;71.26;100751.31;5014864;28;20042;-68
2021/03/27 10:07:23;;;;;;;9.43;2.17;;;;;;;7.03;70.21;100753.75;5015272;28;20037;-71
2021/03/27 10:09:55;;;;;;;;;;;;;;;7.09;70.15;100755.34;4992079;28;20072;-72
2021/03/27 10:12:54;;;;;;;12.25;2.72;;;;;;;7.20;71.16;100761.09;5015643;28;19930;-73
2021/03/27 10:15:30;;;;;;;8.77;2.35;;;;;;;6.92;71.65;100764.75;4998649;28;20074;-71
2021/03/27 10:18:34;;;;;;;11.20;2.38;;;;;;;6.75;71.98;100780.44;5013518;28;20054;-72
2021/03/27 10:21:16;;;;;;;6.57;2.00;;;;;;;6.53;73.18;100765.25;5013117;28;20054;-69
2021/03/27 10:24:12;;;;;;;7.35;2.65;;;;;;;6.29;74.32;100775.78;5022501;28;20157;-71
2021/03/27 10:26:46;;;;;;;8.23;2.35;;;;;;;5.98;73.60;100801.47;5013793;28;20100;-71
2021/03/27 10:29:39;;;;;;;10.07;2.15;;;;;;;5.87;74.99;100808.00;5015029;28;20046;-70
2021/03/27 10:32:31;;;;;;;10.93;2.20;;;;;;;5.81;77.46;100788.75;5011918;28;20360;-71
2021/03/27 10:35:26;;;;;;;11.40;2.03;;;;;;;6.03;75.10;100796.03;5012256;28;20427;-70
2021/03/27 10:38:05;;;;;;;9.10;2.15;;;;;;;6.25;69.62;100804.16;5014988;28;20095;-69
2021/03/27 10:40:47;;;;;;;12.68;3.13;;;;;;;6.60;69.99;100782.69;5015461;28;20359;-70
2021/03/27 10:43:46;;;;;;;9.40;2.50;;;;;;;6.99;72.83;100794.63;5023178;28;20065;-69
2021/03/27 10:46:33;;;;;;;8.15;1.80;;;;;;;7.12;69.10;100800.34;4987189;28;20046;-72
2021/03/27 10:49:08;;;;;;;16.25;3.10;;;;;;;7.25;67.41;100798.09;5014206;28;20058;-71
2021/03/27 10:52:03;;;;;;;9.68;3.00;;;;;;;7.35;64.30;100801.28;5015361;28;20399;-73
2021/03/27 10:54:38;;;;;;;13.55;2.75;;;;;;;7.50;64.88;100804.28;5015093;28;20774;-73
2021/03/27 10:57:13;;;;;;;12.98;2.55;;;;;;;7.63;63.96;100812.66;5015048;28;20061;-73
2021/03/27 11:00:28;;;;;;;11.93;2.80;;;;;;;7.29;61.42;100820.09;5015153;28;20041;-76
2021/03/27 11:03:18;;;;;;;6.80;2.08;;;;;;;7.39;63.43;100818.84;5012098;28;20058;-70
2021/03/27 11:06:09;;;;;;;11.52;2.20;;;;;;;7.69;62.64;100825.72;5014895;28;20049;-72
2021/03/27 11:09:13;;;;;;;13.90;2.10;;;;;;;7.86;64.65;100822.41;5015420;28;20395;-72
2021/03/27 11:11:45;;;;;;;11.32;2.35;;;;;;;7.74;65.32;100829.06;5015277;28;20050;-75
2021/03/27 11:14:53;;;;;;;10.50;2.53;;;;;;;7.37;63.98;100835.75;5014929;28;20073;-74
2021/03/27 11:17:56;;;;;;;12.43;2.50;;;;;;;6.95;67.80;100892.94;5014118;28;20054;-75
2021/03/27 11:20:47;;;;;;;10.13;1.95;;;;;;;5.53;74.95;100887.56;5014587;28;20061;-75
2021/03/27 11:23:38;;;;;;;9.13;2.50;;;;;;;4.81;77.63;100885.94;5014002;28;20130;-76
2021/03/27 11:26:21;;;;;;;10.52;1.73;;;;;;;4.69;76.92;100875.66;5013003;28;20046;-73
2021/03/27 11:28:54;;;;;;;6.82;1.90;;;;;;;5.02;78.50;100863.31;5009991;28;20364;-72
2021/03/27 11:31:29;;;;;;;7.32;1.70;;;;;;;5.46;76.52;100878.06;5007986;28;20431;-69
2021/03/27 11:34:13;;;;;;;14.73;2.45;;;;;;;5.49;77.56;100867.34;5014739;28;20112;-70
2021/03/27 11:36:50;;;;;;;8.02;2.00;;;;;;;5.42;76.24;100874.63;5007581;28;20046;-72
2021/03/27 11:39:30;;;;;;;18.17;2.33;;;;;;;5.39;76.16;100881.78;4995483;28;20050;-73
2021/03/27 11:42:14;;;;;;;11.95;2.75;;;;;;;5.42;75.97;100876.38;4995914;28;20054;-65
2021/03/27 11:44:42;;;;;;;11.18;2.33;;;;;;;5.44;77.40;100887.78;4998415;28;20050;-69
2021/03/27 11:47:36;;;;;;;9.52;2.35;;;;;;;5.47;77.67;100895.66;4998708;28;20357;-73
2021/03/27 11:50:03;;;;;;;;;;;;;;;5.48;77.65;100901.81;5000315;28;20412;-68
2021/03/27 11:52:41;;;;;;;11.93;2.35;;;;;;;5.47;79.32;100908.91;5016268;28;20501;-70
2021/03/27 11:55:21;;;;;;;15.07;3.80;;;;;;;5.67;78.24;100892.44;5013856;28;20053;-69
2021/03/27 11:57:52;;;;;;;9.13;2.72;;;;;;;6.16;75.66;100893.72;5016654;28;20053;-68
2021/03/27 12:01:03;;;;;;;10.55;2.13;;;;;;;6.74;69.89;100895.41;5016297;28;20392;-69
2021/03/27 12:03:49;;;;;;;8.35;2.35;;;;;;;7.25;67.75;100900.78;5018286;28;20057;-71
2021/03/27 12:06:30;;;;;;;12.77;2.55;;;;;;;7.48;66.37;100892.84;5018104;28;20061;-69
2021/03/27 12:09:15;;;;;;;7.32;2.28;;;;;;;7.69;65.65;100916.91;5017658;28;20057;-69
2021/03/27 12:11:53;;;;;;;10.10;2.63;;;;;;;7.77;63.59;100924.59;5017805;28;20061;-69
2021/03/27 12:14:29;;;;;;;15.18;3.08;;;;;;;8.08;67.94;100894.22;5017954;28;20050;-70
2021/03/27 12:17:24;;;;;;;8.93;2.22;;;;;;;8.48;57.06;100921.00;5017577;28;20068;-69
2021/03/27 12:19:58;;;;;;;11.43;1.98;;;;;;;8.42;55.48;100921.25;5016523;28;20045;-69
2021/03/27 12:23:02;;;;;;;10.00;2.17;;;;;;;8.40;54.17;100918.66;5017123;28;20050;-69
2021/03/27 12:25:48;;;;;;;8.23;2.13;;;;;;;8.59;56.56;100922.41;5016703;28;20063;-69
2021/03/27 12:28:39;;;;;;;9.77;1.60;;;;;;;8.67;53.79;100936.28;5016481;28;20455;-69
2021/03/27 12:31:20;;;;;;;4.60;1.58;;;;;;;8.62;52.78;100917.84;5016867;28;20052;-69
2021/03/27 12:34:12;;;;;;;8.30;1.67;;;;;;;8.87;50.78;100937.25;5017268;28;20439;-67
2021/03/27 12:37:01;;;;;;;7.80;1.80;;;;;;;9.01;50.53;100931.34;5017523;28;20363;-68
2021/03/27 12:39:46;;;;;;;8.95;1.92;;;;;;;9.10;48.25;100926.50;5017178;28;20080;-68
2021/03/27 12:42:32;;;;;;;5.60;1.70;;;;;;;9.58;51.47;100931.56;5017237;28;20428;-69
2021/03/27 12:45:01;;;;;;;6.43;1.67;;;;;;;9.70;47.67;100922.13;5017380;28;20057;-69
2021/03/27 12:47:36;;;;;;;5.32;1.65;;;;;;;9.94;47.85;100931.75;5016874;28;20064;-69
2021/03/27 12:50:12;;;;;;;5.85;1.75;;;;;;;9.76;45.68;100932.53;5016280;28;20057;-69
2021/03/27 12:52:41;;;;;;;7.50;1.63;;;;;;;9.74;47.41;100944.19;5016884;28;20076;-69
2021/03/27 12:55:37;;;;;;;8.60;1.90;;;;;;;9.51;46.61;100932.75;5020531;28;20058;-69